Aérodrome :
LOGIN :

S'inscrire | Disclaimer

   EN    FR    IT 

 










Légende :    VFR   VFR Marginal   IFR   IFR Intensif   IFR Très Intensif
Visi : 
Plafond : 
>= 8 km
>= 3000ft
5 à 8 km
1000 à 3000 ft
1500m à 5 km
500 à 1000 ft
800 à 1500m
200 à 500 ft
< 800m
< 200 ft
Symboles :   Orages  Brouillard  Fortes neiges  Fortes précipitations  Vent > 20 kt
SIGMETs :   Divers  Orages  Givrage  Turbulence  Onde Orograph.  Cendres Volcan.







- Altitude de l'aérodrome : 1860 ft
- Code IATA : GRX


LEGR - Granada

DERNIER METAR :
  • 250430Z 00000KT CAVOK 13/11 Q1015

METARs EXPIRÉS :
  • 250400Z 00000KT CAVOK 14/11 Q1015
  • 250330Z AUTO VRB02KT CAVOK 14/11 Q1015
  • 250300Z AUTO 26004KT 240V320 CAVOK 14/10 Q1015
  • 250230Z AUTO VRB02KT CAVOK 15/11 Q1015
  • 250200Z AUTO VRB02KT CAVOK 14/12 Q1014

TAF TAF LEGR
Valide du 25 à 03h jusqu'au 26 à 03h UTC


250200Z 2503/2603 VRB03KT 9999 FEW060 TX24/2515Z TN11/2506Z
TEMPO 2510/2516 04010KT
PROB40
TEMPO 2506/2521 4000 SHRA SCT025TCU SCT035
Pas de NOTAMs connus pour ce terrain.



MET'MAP, la Météo Aéronautique d'un coup d'oeil ! - Copyright ORBIFLY Décembre 2007 - Disclaimer

ORBIFLY MET'MAP TEAM :

Programmation & Développement : Alexandra Zaïnal
Conception & Développement : Baudouin d'Aumeries
Co-Programmation & Développement : Marc-Olivier Méhu
Soutien technique & logistique : Manuel Goepfert

Contact : metmap@orbifly.com




SOURCES & CREDITS :

   NOAA